Time;durP1;ratioP1;P1;durP2;ratioP2;P2;SDS_P1;SDS_P2;PMS_P1;PMS_P2;Temp;Humidity;BMP_temperature;BMP_pressure;BME280_temperature;BME280_humidity;BME280_pressure;Samples;Min_cycle;Max_cycle;Signal;HPM_P1;HPM_P2
2023/09/24 00:01:49;;;;;;;41.70;38.20;;;20.40;99.90;;;;;;5073735;28;20131;-63
2023/09/24 00:04:15;;;;;;;41.42;38.13;;;18.50;99.90;;;;;;5073824;28;20036;-63
2023/09/24 00:06:40;;;;;;;41.55;38.10;;;19.10;99.90;;;;;;5073552;28;20066;-62
2023/09/24 00:09:06;;;;;;;41.38;37.97;;;19.10;99.90;;;;;;5069640;28;20055;-63
2023/09/24 00:11:32;;;;;;;42.00;38.45;;;18.60;99.90;;;;;;5050097;28;20568;-63
2023/09/24 00:13:58;;;;;;;41.72;38.33;;;18.70;99.90;;;;;;5068008;28;20036;-63
2023/09/24 00:16:24;;;;;;;42.17;38.67;;;18.80;99.90;;;;;;5070129;28;20442;-63
2023/09/24 00:18:49;;;;;;;42.28;38.40;;;18.60;99.90;;;;;;5070156;28;20498;-63
2023/09/24 00:21:15;;;;;;;41.92;38.13;;;18.60;99.90;;;;;;5070075;28;20596;-62
2023/09/24 00:23:40;;;;;;;43.28;39.42;;;19.10;99.90;;;;;;5070016;28;20090;-63
2023/09/24 00:26:06;;;;;;;41.70;38.17;;;19.20;99.90;;;;;;5069781;28;20071;-63
2023/09/24 00:28:32;;;;;;;41.28;37.58;;;19.20;99.90;;;;;;5069764;28;20513;-63
2023/09/24 00:31:00;;;;;;;42.25;38.28;;;18.70;99.90;;;;;;5054970;28;20043;-63
2023/09/24 00:33:26;;;;;;;41.80;37.97;;;19.30;99.90;;;;;;5049973;28;20045;-63
2023/09/24 00:35:52;;;;;;;42.83;39.22;;;19.10;99.90;;;;;;5049737;28;20572;-63
2023/09/24 00:38:18;;;;;;;42.47;38.55;;;18.80;99.90;;;;;;5049953;28;20064;-63
2023/09/24 00:40:44;;;;;;;42.65;38.95;;;18.70;99.90;;;;;;5049787;28;20111;-63
2023/09/24 00:43:28;;;;;;;42.78;39.00;;;19.20;99.90;;;;;;5050134;28;20076;-63
2023/09/24 00:45:56;;;;;;;40.67;37.13;;;19.40;99.90;;;;;;5049496;28;20040;-63
2023/09/24 00:48:27;;;;;;;41.28;37.75;;;19.30;99.90;;;;;;5060982;28;20094;-63
2023/09/24 00:51:01;;;;;;;42.70;38.83;;;19.50;99.90;;;;;;5069722;28;20470;-63
2023/09/24 00:53:29;;;;;;;41.17;37.80;;;19.30;99.90;;;;;;5069321;28;20041;-63
2023/09/24 00:55:59;;;;;;;43.55;39.53;;;18.80;99.90;;;;;;5069471;28;20044;-63
2023/09/24 00:58:25;;;;;;;41.10;37.40;;;19.50;99.90;;;;;;5069333;28;20140;-63
2023/09/24 01:00:55;;;;;;;41.60;37.83;;;19.50;99.90;;;;;;5069299;28;20509;-63
2023/09/24 01:03:24;;;;;;;40.80;37.08;;;18.80;99.90;;;;;;5068114;28;20044;-63
2023/09/24 01:05:54;;;;;;;40.60;37.10;;;19.00;99.90;;;;;;5059082;28;20074;-63
2023/09/24 01:08:21;;;;;;;41.60;37.90;;;18.70;99.90;;;;;;5049426;28;20051;-63
2023/09/24 01:10:47;;;;;;;42.13;38.25;;;19.30;99.90;;;;;;5063338;28;20080;-63
2023/09/24 01:13:15;;;;;;;40.25;37.03;;;18.60;99.90;;;;;;5068951;28;20253;-63
2023/09/24 01:15:44;;;;;;;41.72;38.25;;;18.70;99.90;;;;;;5068801;28;20109;-63
2023/09/24 01:18:10;;;;;;;41.10;37.28;;;18.60;99.90;;;;;;5069047;28;20249;-63
2023/09/24 01:20:36;;;;;;;41.58;37.88;;;19.20;99.90;;;;;;5067766;28;20041;-63
2023/09/24 01:23:03;;;;;;;41.08;37.72;;;19.70;99.90;;;;;;5060794;28;20356;-63
2023/09/24 01:25:35;;;;;;;40.88;37.25;;;18.90;99.90;;;;;;5048998;28;20182;-63
2023/09/24 01:28:03;;;;;;;42.90;39.42;;;18.70;99.90;;;;;;5049215;28;20041;-63
2023/09/24 01:30:29;;;;;;;42.65;39.03;;;19.00;99.90;;;;;;5048580;28;20522;-63
2023/09/24 01:32:57;;;;;;;42.45;38.63;;;19.50;99.90;;;;;;5049430;28;20040;-63
2023/09/24 01:35:27;;;;;;;43.08;39.33;;;19.60;99.90;;;;;;5048784;28;20059;-63
2023/09/24 01:38:03;;;;;;;41.97;38.42;;;19.30;99.90;;;;;;5048887;28;20056;-63
2023/09/24 01:40:30;;;;;;;41.72;38.20;;;19.40;99.90;;;;;;5064374;28;20121;-63
2023/09/24 01:42:59;;;;;;;42.72;38.92;;;19.70;99.90;;;;;;5068368;28;20040;-63
2023/09/24 01:45:28;;;;;;;43.22;39.47;;;19.30;99.90;;;;;;5068094;28;20062;-63
2023/09/24 01:47:55;;;;;;;45.08;41.03;;;18.90;99.90;;;;;;5068295;28;20452;-63
2023/09/24 01:50:27;;;;;;;41.88;38.40;;;19.60;99.90;;;;;;5068156;28;20118;-63
2023/09/24 01:52:59;;;;;;;45.80;41.88;;;19.70;99.90;;;;;;5068511;28;20044;-63
2023/09/24 01:55:28;;;;;;;42.30;38.80;;;19.00;99.90;;;;;;5056664;28;20041;-63
2023/09/24 01:57:56;;;;;;;43.50;39.80;;;19.80;99.90;;;;;;5048224;28;20498;-63
2023/09/24 02:00:25;;;;;;;43.53;39.50;;;19.80;99.90;;;;;;5048141;28;20066;-63
2023/09/24 02:02:52;;;;;;;43.60;40.15;;;20.00;99.90;;;;;;5048876;28;20487;-63
2023/09/24 02:05:19;;;;;;;44.13;40.35;;;19.60;99.90;;;;;;5048687;28;20087;-63
2023/09/24 02:07:45;;;;;;;43.47;39.70;;;20.30;99.90;;;;;;5048244;28;20053;-63
2023/09/24 02:10:17;;;;;;;44.25;40.35;;;20.30;99.90;;;;;;5057080;28;20040;-63
2023/09/24 02:12:45;;;;;;;42.00;38.50;;;19.70;99.90;;;;;;5066325;28;20040;-63
2023/09/24 02:15:13;;;;;;;42.47;38.97;;;19.60;99.90;;;;;;5068070;28;20075;-63
2023/09/24 02:17:42;;;;;;;43.08;39.53;;;20.20;99.90;;;;;;5067933;28;20037;-63
2023/09/24 02:20:25;;;;;;;42.10;38.70;;;20.20;99.90;;;;;;5067785;28;20044;-63
2023/09/24 02:22:56;;;;;;;43.63;40.00;;;20.10;99.90;;;;;;5068007;28;20831;-63
2023/09/24 02:25:23;;;;;;;41.55;38.05;;;20.70;99.90;;;;;;5067923;28;20045;-63
2023/09/24 02:27:50;;;;;;;42.63;39.13;;;20.80;99.90;;;;;;5066778;28;20067;-63
2023/09/24 02:30:17;;;;;;;42.40;38.92;;;20.70;99.90;;;;;;5065163;28;20422;-63
2023/09/24 02:32:44;;;;;;;43.33;39.47;;;20.50;99.90;;;;;;5047203;28;20127;-63
2023/09/24 02:35:16;;;;;;;41.97;38.65;;;20.80;99.90;;;;;;5045982;28;20056;-63
2023/09/24 02:37:45;;;;;;;44.10;40.40;;;20.20;99.90;;;;;;5047526;28;20052;-63
2023/09/24 02:40:17;;;;;;;40.28;37.08;;;20.50;99.90;;;;;;5047424;28;20545;-63
2023/09/24 02:42:46;;;;;;;40.20;36.92;;;20.20;99.90;;;;;;5047849;28;20125;-64
2023/09/24 02:45:15;;;;;;;39.90;36.45;;;21.30;99.90;;;;;;5047596;28;20047;-60
2023/09/24 02:47:41;;;;;;;39.78;36.72;;;20.70;99.90;;;;;;5048781;28;20055;-61
2023/09/24 02:50:14;;;;;;;38.90;35.88;;;20.10;99.90;;;;;;5067275;28;20053;-61
2023/09/24 02:52:41;;;;;;;38.88;35.58;;;20.70;99.90;;;;;;5067288;28;20098;-60
2023/09/24 02:55:08;;;;;;;41.20;37.78;;;20.60;99.90;;;;;;5066946;28;20127;-61
2023/09/24 02:57:33;;;;;;;39.90;36.80;;;19.60;99.90;;;;;;5067458;28;20045;-61
2023/09/24 02:59:59;;;;;;;38.75;35.65;;;20.50;99.90;;;;;;5067312;28;20132;-60
2023/09/24 03:02:28;;;;;;;40.15;36.67;;;19.60;99.90;;;;;;5067349;28;20040;-61
2023/09/24 03:04:56;;;;;;;38.78;35.53;;;20.40;99.90;;;;;;5067201;28;20044;-61
2023/09/24 03:07:21;;;;;;;38.67;35.40;;;19.20;99.90;;;;;;5051468;28;20654;-61
2023/09/24 03:09:47;;;;;;;41.75;38.38;;;19.40;99.90;;;;;;5047462;28;20135;-60
2023/09/24 03:12:12;;;;;;;40.25;37.15;;;20.20;99.90;;;;;;5047443;28;20388;-61
2023/09/24 03:14:38;;;;;;;43.25;39.55;;;19.70;99.90;;;;;;5047498;28;20041;-61
2023/09/24 03:17:05;;;;;;;41.10;37.30;;;19.20;99.90;;;;;;5046976;28;20045;-62
2023/09/24 03:19:30;;;;;;;41.53;37.92;;;19.10;99.90;;;;;;5047165;28;20045;-61
2023/09/24 03:21:56;;;;;;;42.13;38.72;;;19.10;99.90;;;;;;5047017;28;20459;-61
2023/09/24 03:24:22;;;;;;;39.45;36.10;;;20.80;99.90;;;;;;5059908;28;20075;-61
2023/09/24 03:26:47;;;;;;;38.58;35.28;;;19.10;99.90;;;;;;5067435;28;20045;-61
2023/09/24 03:29:14;;;;;;;43.08;39.28;;;19.10;99.90;;;;;;5067292;28;20147;-60
2023/09/24 03:31:40;;;;;;;41.97;38.17;;;20.30;99.90;;;;;;5066947;28;20512;-61
2023/09/24 03:34:05;;;;;;;42.25;38.50;;;19.30;99.90;;;;;;5067023;28;20445;-62
2023/09/24 03:36:31;;;;;;;42.55;38.50;;;20.30;99.90;;;;;;5066688;28;20075;-60
2023/09/24 03:38:56;;;;;;;43.25;39.55;;;20.40;99.90;;;;;;5067131;28;20052;-61
2023/09/24 03:41:23;;;;;;;40.70;36.97;;;19.10;99.90;;;;;;5066680;28;20090;-61
2023/09/24 03:43:48;;;;;;;44.13;40.20;;;20.00;99.90;;;;;;5051698;28;20043;-60
2023/09/24 03:46:15;;;;;;;41.65;37.92;;;19.30;99.90;;;;;;5050537;28;20495;-62
2023/09/24 03:48:40;;;;;;;42.70;39.08;;;19.90;99.90;;;;;;5050428;28;20553;-61
2023/09/24 03:51:06;;;;;;;41.85;38.38;;;19.50;99.90;;;;;;5050510;28;20061;-61
2023/09/24 03:53:31;;;;;;;44.92;40.80;;;20.40;99.90;;;;;;5050935;28;20049;-63
2023/09/24 03:55:57;;;;;;;42.83;39.28;;;19.30;99.90;;;;;;5050440;28;20041;-63
2023/09/24 03:58:23;;;;;;;41.47;37.95;;;19.40;99.90;;;;;;5050752;28;20076;-63
2023/09/24 04:00:49;;;;;;;43.33;39.70;;;19.10;99.90;;;;;;5048928;28;20037;-63
2023/09/24 04:03:16;;;;;;;42.70;39.00;;;19.10;99.90;;;;;;5068853;28;20044;-63
2023/09/24 04:05:42;;;;;;;43.38;39.08;;;19.80;99.90;;;;;;5069087;28;20064;-63
2023/09/24 04:08:08;;;;;;;42.13;38.58;;;20.20;99.90;;;;;;5052878;28;20044;-63
2023/09/24 04:10:34;;;;;;;43.38;39.58;;;20.40;99.90;;;;;;5070306;28;20421;-63
2023/09/24 04:13:00;;;;;;;44.67;40.25;;;19.30;99.90;;;;;;5070433;28;20041;-63
2023/09/24 04:15:27;;;;;;;42.55;38.75;;;19.70;99.90;;;;;;5069926;28;20521;-63
2023/09/24 04:17:55;;;;;;;41.85;38.22;;;19.20;99.90;;;;;;5070147;28;20079;-63
2023/09/24 04:20:20;;;;;;;41.47;37.88;;;19.30;99.90;;;;;;5068737;28;20094;-63
2023/09/24 04:22:47;;;;;;;43.42;39.65;;;20.40;99.90;;;;;;5068793;28;20390;-64
2023/09/24 04:25:21;;;;;;;41.20;37.60;;;19.30;99.90;;;;;;5070062;28;20055;-63
2023/09/24 04:27:48;;;;;;;40.72;36.92;;;20.00;99.90;;;;;;5070036;28;20061;-63
2023/09/24 04:30:17;;;;;;;41.55;38.05;;;20.20;99.90;;;;;;5069691;28;20132;-63
2023/09/24 04:32:47;;;;;;;42.45;38.92;;;19.40;99.90;;;;;;5069778;28;20047;-63
2023/09/24 04:35:13;;;;;;;41.38;37.63;;;20.50;99.90;;;;;;5069798;28;20036;-63
2023/09/24 04:37:39;;;;;;;45.10;41.20;;;20.10;99.90;;;;;;5069915;28;20037;-63
2023/09/24 04:40:08;;;;;;;42.67;38.92;;;20.50;99.90;;;;;;5069185;28;20036;-63
2023/09/24 04:42:34;;;;;;;44.58;40.45;;;19.40;99.90;;;;;;5051003;28;20041;-63
2023/09/24 04:45:00;;;;;;;42.55;38.72;;;20.30;99.90;;;;;;5048114;28;20099;-63
2023/09/24 04:47:26;;;;;;;42.22;38.50;;;20.50;99.90;;;;;;5049921;28;20049;-63
2023/09/24 04:49:52;;;;;;;40.58;36.92;;;20.50;99.90;;;;;;5050025;28;20065;-63
2023/09/24 04:52:18;;;;;;;41.92;38.28;;;20.60;99.90;;;;;;5050134;28;20049;-64
2023/09/24 04:54:43;;;;;;;41.28;37.65;;;19.60;99.90;;;;;;5049363;28;20053;-63
2023/09/24 04:57:09;;;;;;;42.97;39.08;;;19.40;99.90;;;;;;5049123;28;20037;-64
2023/09/24 04:59:35;;;;;;;42.92;38.67;;;19.80;99.90;;;;;;5050653;28;20079;-63
2023/09/24 05:02:00;;;;;;;42.22;37.97;;;20.50;99.90;;;;;;5059912;28;20478;-64
2023/09/24 05:04:26;;;;;;;42.05;38.17;;;19.60;99.90;;;;;;5049237;28;20056;-63
2023/09/24 05:06:51;;;;;;;41.35;37.63;;;20.50;99.90;;;;;;5047892;28;20045;-62
2023/09/24 05:09:17;;;;;;;42.70;38.80;;;19.60;99.90;;;;;;5051097;28;20411;-62
2023/09/24 05:11:42;;;;;;;43.67;39.50;;;20.60;99.90;;;;;;5068683;28;20554;-62
2023/09/24 05:14:08;;;;;;;41.72;37.70;;;20.60;99.90;;;;;;5068900;28;20090;-63
2023/09/24 05:16:34;;;;;;;40.78;37.13;;;20.60;99.90;;;;;;5067375;28;20040;-62
2023/09/24 05:19:02;;;;;;;41.80;37.95;;;19.30;99.90;;;;;;5068316;28;20048;-62
2023/09/24 05:21:28;;;;;;;42.03;37.80;;;19.60;99.90;;;;;;5069150;28;20155;-62
2023/09/24 05:23:54;;;;;;;43.63;39.67;;;19.90;99.90;;;;;;5068976;28;20040;-62
2023/09/24 05:26:20;;;;;;;41.88;38.03;;;20.10;99.90;;;;;;5067561;28;20074;-62
2023/09/24 05:28:46;;;;;;;43.95;39.88;;;20.60;99.90;;;;;;5069139;28;20051;-63
2023/09/24 05:31:12;;;;;;;42.70;38.47;;;19.50;99.90;;;;;;5069138;28;20044;-62
2023/09/24 05:33:38;;;;;;;43.40;39.40;;;20.60;99.90;;;;;;5069127;28;20555;-63
2023/09/24 05:36:04;;;;;;;42.08;38.05;;;19.80;99.90;;;;;;5068925;28;20040;-63
2023/09/24 05:38:30;;;;;;;40.72;36.88;;;20.00;99.90;;;;;;5068225;28;20029;-62
2023/09/24 05:40:56;;;;;;;41.88;37.70;;;20.40;99.90;;;;;;5049814;28;20044;-62
2023/09/24 05:43:22;;;;;;;40.83;37.10;;;19.30;99.90;;;;;;5048591;28;20049;-62
2023/09/24 05:45:49;;;;;;;41.22;37.35;;;19.30;99.90;;;;;;5048221;28;20047;-62
2023/09/24 05:48:16;;;;;;;42.25;38.15;;;20.40;99.90;;;;;;5048601;28;20037;-62
2023/09/24 05:50:42;;;;;;;41.35;37.47;;;20.20;99.90;;;;;;5048400;28;20061;-62
2023/09/24 05:53:09;;;;;;;40.72;36.70;;;20.20;99.90;;;;;;5048824;28;20383;-62
2023/09/24 05:55:35;;;;;;;40.63;36.83;;;20.40;99.90;;;;;;5048345;28;20120;-62
2023/09/24 05:58:00;;;;;;;40.85;37.10;;;19.10;99.90;;;;;;5051551;28;20174;-62
2023/09/24 06:00:28;;;;;;;42.40;38.42;;;19.30;99.90;;;;;;5067828;28;20047;-63
2023/09/24 06:02:54;;;;;;;40.65;36.83;;;19.30;99.90;;;;;;5068335;28;20139;-62
2023/09/24 06:05:19;;;;;;;41.70;37.90;;;19.80;99.90;;;;;;5068535;28;20225;-62
2023/09/24 06:07:45;;;;;;;42.38;38.60;;;19.00;99.90;;;;;;5067912;28;20045;-62
2023/09/24 06:10:10;;;;;;;41.63;37.42;;;19.20;99.90;;;;;;5068163;28;20494;-62
2023/09/24 06:12:36;;;;;;;41.50;37.40;;;19.00;99.90;;;;;;5068251;28;20043;-63
2023/09/24 06:15:03;;;;;;;42.80;39.00;;;19.10;99.90;;;;;;5068036;28;20048;-63
2023/09/24 06:17:29;;;;;;;43.83;39.50;;;19.70;99.90;;;;;;5062436;28;20036;-63
2023/09/24 06:19:55;;;;;;;42.05;38.05;;;19.20;99.90;;;;;;5047970;28;20044;-63
2023/09/24 06:22:23;;;;;;;42.63;38.72;;;19.40;99.90;;;;;;5048292;28;20552;-63
2023/09/24 06:24:50;;;;;;;39.63;36.13;;;19.50;99.90;;;;;;5048149;28;20056;-63
2023/09/24 06:27:16;;;;;;;40.53;36.55;;;19.60;99.90;;;;;;5048276;28;20075;-63
2023/09/24 06:29:43;;;;;;;42.10;38.03;;;19.40;99.90;;;;;;5048245;28;20041;-64
2023/09/24 06:32:08;;;;;;;42.28;38.22;;;20.20;99.90;;;;;;5047831;28;20037;-63
2023/09/24 06:34:36;;;;;;;40.75;37.05;;;19.30;99.90;;;;;;5048128;28;20048;-63
2023/09/24 06:37:02;;;;;;;42.28;38.17;;;20.30;99.90;;;;;;5050632;28;20052;-63
2023/09/24 06:39:29;;;;;;;41.15;37.10;;;20.30;99.90;;;;;;5068010;28;20112;-64
2023/09/24 06:41:55;;;;;;;42.25;38.30;;;20.30;99.90;;;;;;5067823;28;20086;-63
2023/09/24 06:44:23;;;;;;;41.70;37.80;;;20.00;99.90;;;;;;5067954;28;20041;-63
2023/09/24 06:46:49;;;;;;;42.85;38.58;;;19.80;99.90;;;;;;5067722;28;20119;-64
2023/09/24 06:49:15;;;;;;;42.08;38.10;;;19.60;99.90;;;;;;5067821;28;20518;-63
2023/09/24 06:51:40;;;;;;;42.22;38.53;;;20.30;99.90;;;;;;5067769;28;20087;-63
2023/09/24 06:54:06;;;;;;;39.63;36.05;;;20.40;99.90;;;;;;5067720;28;20098;-63
2023/09/24 06:56:32;;;;;;;40.92;37.30;;;20.30;99.90;;;;;;5062487;28;20106;-64
2023/09/24 06:58:57;;;;;;;40.63;36.50;;;19.60;99.90;;;;;;5047479;28;20815;-63
2023/09/24 07:01:23;;;;;;;40.65;36.63;;;20.20;99.90;;;;;;5047212;28;20048;-63
2023/09/24 07:03:49;;;;;;;38.60;34.88;;;19.90;99.90;;;;;;5047349;28;20048;-64
2023/09/24 07:06:16;;;;;;;37.92;34.40;;;20.40;99.90;;;;;;5046060;28;20052;-64
2023/09/24 07:08:41;;;;;;;36.00;32.58;;;20.00;99.90;;;;;;5047369;28;20499;-64
2023/09/24 07:11:23;;;;;;;36.15;32.67;;;20.50;99.90;;;;;;5064432;28;20052;-64
2023/09/24 07:13:50;;;;;;;35.20;31.90;;;20.80;99.90;;;;;;5067449;28;20032;-64
2023/09/24 07:16:15;;;;;;;36.13;32.47;;;20.30;99.90;;;;;;5060890;28;20956;-64
2023/09/24 07:18:41;;;;;;;33.30;29.95;;;20.40;99.90;;;;;;5058516;28;20043;-64
2023/09/24 07:21:07;;;;;;;36.03;32.42;;;20.90;99.90;;;;;;5061508;28;20036;-63
2023/09/24 07:23:33;;;;;;;31.85;28.55;;;20.70;99.90;;;;;;5060480;28;20110;-64
2023/09/24 07:25:59;;;;;;;30.25;27.27;;;21.50;99.90;;;;;;5053780;28;20040;-62
2023/09/24 07:28:25;;;;;;;31.30;28.02;;;21.00;99.90;;;;;;5054490;28;20474;-61
2023/09/24 07:30:54;;;;;;;30.48;27.58;;;21.30;99.90;;;;;;5055732;28;20037;-62
2023/09/24 07:33:24;;;;;;;32.00;28.83;;;21.70;99.90;;;;;;5051452;28;20090;-62
2023/09/24 07:35:49;;;;;;;30.45;27.55;;;21.70;99.90;;;;;;5070312;28;20612;-61
2023/09/24 07:38:15;;;;;;;29.92;27.23;;;21.70;99.90;;;;;;5053618;28;20036;-61
2023/09/24 07:40:41;;;;;;;30.05;26.65;;;21.50;99.90;;;;;;5058829;28;20380;-62
2023/09/24 07:43:08;;;;;;;30.27;27.10;;;21.70;99.90;;;;;;5064646;28;20036;-63
2023/09/24 07:45:34;;;;;;;25.33;23.00;;;21.80;99.90;;;;;;5052319;28;20131;-62
2023/09/24 07:48:00;;;;;;;25.88;23.33;;;21.60;99.90;;;;;;5070819;28;20060;-61
2023/09/24 07:50:26;;;;;;;25.27;18.60;;;21.60;99.90;;;;;;5070617;28;20052;-62
2023/09/24 07:52:52;;;;;;;23.25;21.08;;;22.00;99.90;;;;;;5070969;28;20052;-61
2023/09/24 07:55:17;;;;;;;20.73;18.77;;;22.20;99.90;;;;;;5070484;28;20121;-62
2023/09/24 07:57:43;;;;;;;21.88;19.23;;;22.00;99.90;;;;;;5070653;28;20094;-62
2023/09/24 08:00:09;;;;;;;19.70;17.90;;;22.40;99.90;;;;;;5070460;28;20048;-62
2023/09/24 08:02:34;;;;;;;21.63;19.40;;;22.50;99.90;;;;;;5052841;28;20044;-62
2023/09/24 08:05:00;;;;;;;21.10;19.17;;;22.30;99.90;;;;;;5051046;28;20053;-61
2023/09/24 08:07:29;;;;;;;23.88;21.77;;;22.70;99.90;;;;;;5050996;28;20049;-62
2023/09/24 08:09:54;;;;;;;21.63;19.73;;;21.90;99.90;;;;;;5057784;28;20093;-61
2023/09/24 08:12:20;;;;;;;24.77;22.42;;;22.10;99.90;;;;;;5071187;28;20041;-61
2023/09/24 08:14:47;;;;;;;23.48;21.40;;;21.80;99.90;;;;;;5070228;28;20464;-62
2023/09/24 08:17:13;;;;;;;21.40;19.40;;;22.00;99.90;;;;;;5070375;28;20047;-63
2023/09/24 08:19:39;;;;;;;24.13;21.80;;;22.00;99.90;;;;;;5070117;28;20040;-62
2023/09/24 08:22:04;;;;;;;25.75;23.20;;;21.70;99.90;;;;;;5070141;28;20044;-62
2023/09/24 08:24:30;;;;;;;19.48;17.67;;;21.90;99.90;;;;;;5066228;28;20091;-62
2023/09/24 08:26:56;;;;;;;22.10;20.27;;;22.20;99.90;;;;;;5049896;28;20041;-63
2023/09/24 08:29:21;;;;;;;20.92;17.95;;;22.20;99.90;;;;;;5049211;28;20461;-61
2023/09/24 08:31:47;;;;;;;15.65;14.13;;;22.00;99.90;;;;;;5049666;28;20057;-61
2023/09/24 08:34:12;;;;;;;14.52;13.07;;;22.30;99.90;;;;;;5050072;28;20053;-65
2023/09/24 08:36:38;;;;;;;16.73;14.95;;;22.30;99.90;;;;;;5048437;28;20041;-65
2023/09/24 08:39:04;;;;;;;17.58;12.07;;;22.30;99.90;;;;;;5050070;28;20037;-65
2023/09/24 08:41:30;;;;;;;13.93;12.63;;;22.40;99.90;;;;;;5065576;28;20044;-65
2023/09/24 08:43:56;;;;;;;14.38;12.27;;;22.80;99.90;;;;;;5070017;28;20422;-65
2023/09/24 08:46:22;;;;;;;17.88;11.98;;;23.20;99.90;;;;;;5069818;28;20056;-65
2023/09/24 08:48:49;;;;;;;11.27;10.20;;;23.00;99.90;;;;;;5069704;28;20080;-65
2023/09/24 08:51:15;;;;;;;15.15;12.10;;;23.10;99.90;;;;;;5069908;28;20055;-65
2023/09/24 08:53:40;;;;;;;15.57;11.73;;;23.40;99.90;;;;;;5069564;28;20036;-65
2023/09/24 08:56:06;;;;;;;14.70;11.00;;;23.60;99.90;;;;;;5069462;28;20040;-65
2023/09/24 08:58:32;;;;;;;13.70;12.32;;;23.70;99.90;;;;;;5051462;28;20048;-65
2023/09/24 09:01:01;;;;;;;13.05;11.45;;;23.80;43.80;;;;;;5069625;28;20051;-65
2023/09/24 09:03:28;;;;;;;11.32;10.23;;;24.20;97.50;;;;;;5066820;28;20036;-65
2023/09/24 09:05:53;;;;;;;11.82;10.52;;;24.50;1.00;;;;;;5069690;28;20044;-65
2023/09/24 09:08:19;;;;;;;11.35;9.77;;;24.70;99.90;;;;;;5069437;28;20560;-65
2023/09/24 09:10:48;;;;;;;14.13;10.32;;;24.40;99.20;;;;;;5055008;28;20059;-65
2023/09/24 09:13:17;;;;;;;14.13;12.40;;;24.90;99.90;;;;;;5049339;28;20164;-65
2023/09/24 09:15:44;;;;;;;12.73;10.82;;;24.30;99.90;;;;;;5049329;28;20057;-65
2023/09/24 09:18:24;;;;;;;12.75;11.27;;;24.40;1.00;;;;;;5049659;28;20090;-65
2023/09/24 09:20:50;;;;;;;11.23;9.45;;;24.40;99.90;;;;;;5049335;28;20033;-65
2023/09/24 09:23:32;;;;;;;10.90;9.48;;;24.30;99.90;;;;;;5049256;28;20518;-65
2023/09/24 09:25:58;;;;;;;14.13;12.73;;;24.30;1.00;;;;;;5058630;28;20044;-65
2023/09/24 09:28:29;;;;;;;15.38;12.27;;;24.30;36.70;;;;;;5069118;28;20040;-65
2023/09/24 09:31:02;;;;;;;12.45;11.38;;;24.30;20.80;;;;;;5068804;28;20166;-65
2023/09/24 09:33:29;;;;;;;14.95;13.20;;;24.40;1.00;;;;;;5067394;28;20062;-66
2023/09/24 09:35:57;;;;;;;13.00;10.95;;;24.30;1.00;;;;;;5068610;28;20070;-65
2023/09/24 09:38:23;;;;;;;14.38;12.82;;;24.70;99.90;;;;;;5068689;28;20047;-65
2023/09/24 09:40:54;;;;;;;15.70;13.25;;;24.10;99.90;;;;;;5067957;28;20048;-65
2023/09/24 09:43:23;;;;;;;17.08;13.35;;;24.20;1.00;;;;;;5068609;28;20051;-65
2023/09/24 09:45:51;;;;;;;12.90;11.57;;;24.40;99.90;;;;;;5068556;28;20102;-65
2023/09/24 09:48:29;;;;;;;13.95;12.65;;;24.10;99.90;;;;;;5068640;28;20040;-65
2023/09/24 09:51:00;;;;;;;12.88;11.48;;;24.10;99.90;;;;;;5048924;28;20053;-65
2023/09/24 09:53:32;;;;;;;13.70;9.52;;;24.10;99.90;;;;;;5048948;28;20048;-65
2023/09/24 09:56:00;;;;;;;13.93;11.57;;;24.10;99.90;;;;;;5048915;28;20052;-65
2023/09/24 09:58:26;;;;;;;15.15;10.40;;;24.20;99.90;;;;;;5049138;28;20049;-65
2023/09/24 10:00:54;;;;;;;13.00;10.82;;;24.30;99.90;;;;;;5048792;28;20650;-65
2023/09/24 10:03:21;;;;;;;13.98;12.45;;;24.40;99.90;;;;;;5048451;28;20053;-65
2023/09/24 10:05:48;;;;;;;14.63;13.10;;;24.70;99.90;;;;;;5047044;28;20052;-65
2023/09/24 10:08:40;;;;;;;13.82;11.07;;;24.60;99.90;;;;;;5048483;28;20393;-65
2023/09/24 10:11:07;;;;;;;14.40;11.32;;;24.70;99.90;;;;;;5064656;28;20045;-65
2023/09/24 10:13:46;;;;;;;15.88;14.18;;;24.70;99.90;;;;;;5068055;28;20048;-65
2023/09/24 10:16:30;;;;;;;14.77;12.60;;;24.60;99.90;;;;;;5051615;28;20410;-65
2023/09/24 10:19:00;;;;;;;14.68;12.80;;;24.60;99.90;;;;;;5048159;28;20052;-65
2023/09/24 10:21:35;;;;;;;11.93;10.77;;;24.60;99.90;;;;;;5048034;28;20063;-65
2023/09/24 10:24:09;;;;;;;14.32;13.02;;;24.60;99.90;;;;;;5048028;28;20102;-65
2023/09/24 10:27:01;;;;;;;12.65;11.40;;;24.80;99.90;;;;;;5047658;28;20104;-65
2023/09/24 10:29:50;;;;;;;16.17;14.43;;;24.60;81.80;;;;;;5048106;28;20045;-65
2023/09/24 10:32:23;;;;;;;14.25;12.75;;;24.70;99.90;;;;;;5048018;28;20057;-65
2023/09/24 10:34:51;;;;;;;13.60;12.18;;;24.80;99.90;;;;;;5047854;28;20041;-65
2023/09/24 10:37:30;;;;;;;13.55;10.75;;;24.90;99.90;;;;;;5048239;28;20045;-65
2023/09/24 10:40:05;;;;;;;15.32;13.93;;;24.90;99.90;;;;;;5047923;28;20514;-64
2023/09/24 10:42:38;;;;;;;13.55;12.23;;;24.90;1.00;;;;;;5047891;28;20522;-65
2023/09/24 10:45:06;;;;;;;13.25;11.70;;;24.90;1.00;;;;;;5047737;28;20127;-64
2023/09/24 10:47:36;;;;;;;15.98;13.40;;;24.90;1.00;;;;;;5047934;28;20052;-65
2023/09/24 10:50:10;;;;;;;15.75;12.32;;;24.90;1.00;;;;;;5047556;28;20075;-64
2023/09/24 10:53:01;;;;;;;12.85;11.48;;;24.80;1.00;;;;;;5047387;28;20499;-65
2023/09/24 10:55:30;;;;;;;19.15;17.38;;;24.90;99.90;;;;;;5047410;28;20106;-64
2023/09/24 10:58:17;;;;;;;15.38;14.07;;;24.90;1.00;;;;;;5046334;28;20676;-65
2023/09/24 11:00:45;;;;;;;18.88;17.10;;;24.90;1.00;;;;;;5047648;28;20044;-64
2023/09/24 11:03:13;;;;;;;16.83;15.32;;;24.90;99.90;;;;;;5046195;28;20116;-64
2023/09/24 11:05:46;;;;;;;18.40;16.80;;;25.00;99.90;;;;;;5048432;28;20082;-64
2023/09/24 11:08:13;;;;;;;18.42;16.73;;;24.80;99.90;;;;;;5067529;28;20044;-64
2023/09/24 11:10:39;;;;;;;18.63;16.90;;;24.80;99.90;;;;;;5054204;28;20167;-65
2023/09/24 11:13:06;;;;;;;17.23;15.68;;;24.70;99.90;;;;;;5047571;28;20123;-64
2023/09/24 11:15:37;;;;;;;18.17;16.48;;;24.70;99.90;;;;;;5047233;28;20037;-64
2023/09/24 11:18:03;;;;;;;18.42;16.92;;;24.50;99.90;;;;;;5047314;28;20049;-64
2023/09/24 11:20:31;;;;;;;18.67;16.75;;;24.40;99.90;;;;;;5047264;28;20040;-64
2023/09/24 11:23:10;;;;;;;17.42;15.82;;;24.40;99.90;;;;;;5047292;28;20048;-64
2023/09/24 11:25:37;;;;;;;16.60;15.00;;;24.40;99.90;;;;;;5047169;28;20045;-64
2023/09/24 11:28:04;;;;;;;15.88;14.48;;;24.20;99.90;;;;;;5047525;28;20041;-64
2023/09/24 11:30:43;;;;;;;19.40;17.13;;;24.10;99.90;;;;;;5047393;28;20049;-64
2023/09/24 11:33:20;;;;;;;17.30;15.73;;;24.10;99.90;;;;;;5047447;28;20052;-64
2023/09/24 11:35:46;;;;;;;18.33;16.67;;;24.10;99.90;;;;;;5048541;28;20132;-64
2023/09/24 11:38:12;;;;;;;18.67;16.80;;;24.00;99.90;;;;;;5047581;28;20033;-64
2023/09/24 11:40:40;;;;;;;17.13;15.63;;;24.20;99.90;;;;;;5047314;28;20044;-64
2023/09/24 11:43:11;;;;;;;16.38;14.90;;;24.00;99.90;;;;;;5047477;28;20115;-64
2023/09/24 11:45:48;;;;;;;18.95;17.10;;;23.90;99.90;;;;;;5047013;28;20049;-64
2023/09/24 11:48:22;;;;;;;16.63;13.95;;;24.00;99.90;;;;;;5045753;28;20045;-63
2023/09/24 11:50:53;;;;;;;15.73;13.98;;;24.00;1.00;;;;;;5047098;28;20049;-64
2023/09/24 11:53:21;;;;;;;14.98;13.57;;;24.10;99.90;;;;;;5047130;28;20437;-63
2023/09/24 11:55:51;;;;;;;15.55;14.13;;;24.30;99.90;;;;;;5046767;28;20049;-64
2023/09/24 11:58:22;;;;;;;15.15;13.75;;;24.20;99.90;;;;;;5046896;28;20120;-63
2023/09/24 12:00:48;;;;;;;16.33;14.73;;;24.40;99.90;;;;;;5047019;28;20033;-63
2023/09/24 12:03:14;;;;;;;16.98;14.90;;;24.30;99.90;;;;;;5061806;28;20084;-63
2023/09/24 12:05:41;;;;;;;15.70;14.20;;;24.40;99.90;;;;;;5069552;28;20403;-64
2023/09/24 12:08:08;;;;;;;15.57;14.18;;;24.40;99.90;;;;;;5069113;28;20044;-63
2023/09/24 12:10:38;;;;;;;17.08;15.07;;;24.50;99.90;;;;;;5068773;28;20418;-64
2023/09/24 12:13:05;;;;;;;15.30;13.75;;;24.70;1.00;;;;;;5070807;28;20545;-64
2023/09/24 12:15:33;;;;;;;15.02;13.32;;;24.70;99.90;;;;;;5070699;28;20502;-64
2023/09/24 12:18:01;;;;;;;16.63;14.95;;;24.80;99.90;;;;;;5070730;28;20183;-64
2023/09/24 12:20:27;;;;;;;15.95;14.45;;;24.50;99.90;;;;;;5070762;28;20052;-64
2023/09/24 12:22:53;;;;;;;16.10;14.55;;;24.70;99.90;;;;;;5070497;28;20136;-64
2023/09/24 12:25:19;;;;;;;15.68;14.18;;;24.70;99.90;;;;;;5070141;28;20056;-64
2023/09/24 12:27:45;;;;;;;14.63;13.13;;;24.90;99.90;;;;;;5070137;28;20040;-63
2023/09/24 12:30:12;;;;;;;16.67;15.18;;;24.80;99.90;;;;;;5057388;28;20328;-64
2023/09/24 12:32:39;;;;;;;14.18;12.73;;;24.80;99.90;;;;;;5050026;28;20052;-64